sensor_id;sensor_type;location;lat;lon;timestamp;P1;durP1;ratioP1;P2;durP2;ratioP2
18796;SDS011;9526;52.612;13.300;2022-11-04T00:01:03;25.98;;;11.45;;
18796;SDS011;9526;52.612;13.300;2022-11-04T00:03:28;25.65;;;12.00;;
18796;SDS011;9526;52.612;13.300;2022-11-04T00:05:52;23.52;;;12.27;;
18796;SDS011;9526;52.612;13.300;2022-11-04T00:08:16;20.52;;;11.63;;
18796;SDS011;9526;52.612;13.300;2022-11-04T00:10:46;24.60;;;11.63;;
18796;SDS011;9526;52.612;13.300;2022-11-04T00:13:24;23.50;;;12.45;;
18796;SDS011;9526;52.612;13.300;2022-11-04T00:15:50;27.23;;;12.40;;
18796;SDS011;9526;52.612;13.300;2022-11-04T00:18:34;25.15;;;12.07;;
18796;SDS011;9526;52.612;13.300;2022-11-04T00:20:58;26.38;;;12.45;;
18796;SDS011;9526;52.612;13.300;2022-11-04T00:23:40;25.25;;;12.50;;
18796;SDS011;9526;52.612;13.300;2022-11-04T00:26:21;23.20;;;12.00;;
18796;SDS011;9526;52.612;13.300;2022-11-04T00:29:02;29.00;;;12.45;;
18796;SDS011;9526;52.612;13.300;2022-11-04T00:31:25;22.95;;;12.30;;
18796;SDS011;9526;52.612;13.300;2022-11-04T00:34:06;25.08;;;12.27;;
18796;SDS011;9526;52.612;13.300;2022-11-04T00:36:30;21.13;;;11.50;;
18796;SDS011;9526;52.612;13.300;2022-11-04T00:38:55;26.58;;;13.20;;
18796;SDS011;9526;52.612;13.300;2022-11-04T00:41:19;28.70;;;12.80;;
18796;SDS011;9526;52.612;13.300;2022-11-04T00:43:50;22.90;;;12.75;;
18796;SDS011;9526;52.612;13.300;2022-11-04T00:46:14;23.33;;;12.63;;
18796;SDS011;9526;52.612;13.300;2022-11-04T00:48:38;27.70;;;13.80;;
18796;SDS011;9526;52.612;13.300;2022-11-04T00:51:01;31.88;;;13.93;;
18796;SDS011;9526;52.612;13.300;2022-11-04T00:53:25;27.58;;;13.35;;
18796;SDS011;9526;52.612;13.300;2022-11-04T00:55:50;28.83;;;13.20;;
18796;SDS011;9526;52.612;13.300;2022-11-04T00:58:14;25.17;;;13.63;;
18796;SDS011;9526;52.612;13.300;2022-11-04T01:00:37;28.27;;;14.02;;
18796;SDS011;9526;52.612;13.300;2022-11-04T01:03:01;27.30;;;13.77;;
18796;SDS011;9526;52.612;13.300;2022-11-04T01:05:24;31.85;;;15.38;;
18796;SDS011;9526;52.612;13.300;2022-11-04T01:07:48;31.48;;;14.95;;
18796;SDS011;9526;52.612;13.300;2022-11-04T01:10:12;32.25;;;15.05;;
18796;SDS011;9526;52.612;13.300;2022-11-04T01:12:37;28.50;;;14.35;;
18796;SDS011;9526;52.612;13.300;2022-11-04T01:15:00;31.10;;;14.43;;
18796;SDS011;9526;52.612;13.300;2022-11-04T01:17:24;26.42;;;15.30;;
18796;SDS011;9526;52.612;13.300;2022-11-04T01:19:48;26.85;;;14.13;;
18796;SDS011;9526;52.612;13.300;2022-11-04T01:22:11;29.95;;;14.18;;
18796;SDS011;9526;52.612;13.300;2022-11-04T01:24:35;30.90;;;13.52;;
18796;SDS011;9526;52.612;13.300;2022-11-04T01:26:58;29.20;;;14.80;;
18796;SDS011;9526;52.612;13.300;2022-11-04T01:29:24;30.42;;;14.57;;
18796;SDS011;9526;52.612;13.300;2022-11-04T01:31:47;30.50;;;14.40;;
18796;SDS011;9526;52.612;13.300;2022-11-04T01:34:11;30.25;;;14.90;;
18796;SDS011;9526;52.612;13.300;2022-11-04T01:36:34;34.22;;;13.75;;
18796;SDS011;9526;52.612;13.300;2022-11-04T01:38:58;27.88;;;14.27;;
18796;SDS011;9526;52.612;13.300;2022-11-04T01:41:22;26.70;;;14.40;;
18796;SDS011;9526;52.612;13.300;2022-11-04T01:43:49;31.52;;;14.48;;
18796;SDS011;9526;52.612;13.300;2022-11-04T01:46:19;27.02;;;15.00;;
18796;SDS011;9526;52.612;13.300;2022-11-04T01:48:49;32.15;;;15.02;;
18796;SDS011;9526;52.612;13.300;2022-11-04T01:51:14;28.98;;;14.40;;
18796;SDS011;9526;52.612;13.300;2022-11-04T01:53:38;28.17;;;14.85;;
18796;SDS011;9526;52.612;13.300;2022-11-04T01:56:06;29.35;;;15.27;;
18796;SDS011;9526;52.612;13.300;2022-11-04T01:58:33;29.65;;;15.07;;
18796;SDS011;9526;52.612;13.300;2022-11-04T02:00:57;27.48;;;15.77;;
18796;SDS011;9526;52.612;13.300;2022-11-04T02:03:23;33.15;;;15.27;;
18796;SDS011;9526;52.612;13.300;2022-11-04T02:05:51;36.03;;;14.93;;
18796;SDS011;9526;52.612;13.300;2022-11-04T02:08:15;29.55;;;15.38;;
18796;SDS011;9526;52.612;13.300;2022-11-04T02:10:40;30.33;;;15.57;;
18796;SDS011;9526;52.612;13.300;2022-11-04T02:13:10;29.67;;;15.63;;
18796;SDS011;9526;52.612;13.300;2022-11-04T02:15:35;29.05;;;15.32;;
18796;SDS011;9526;52.612;13.300;2022-11-04T02:18:15;34.55;;;15.55;;
18796;SDS011;9526;52.612;13.300;2022-11-04T02:20:59;37.67;;;15.68;;
18796;SDS011;9526;52.612;13.300;2022-11-04T02:24:13;32.00;;;15.50;;
18796;SDS011;9526;52.612;13.300;2022-11-04T02:30:10;27.92;;;15.27;;
18796;SDS011;9526;52.612;13.300;2022-11-04T02:32:40;29.27;;;15.15;;
18796;SDS011;9526;52.612;13.300;2022-11-04T02:35:38;32.55;;;15.32;;
18796;SDS011;9526;52.612;13.300;2022-11-04T02:38:09;28.00;;;15.82;;
18796;SDS011;9526;52.612;13.300;2022-11-04T02:40:40;32.95;;;15.35;;
18796;SDS011;9526;52.612;13.300;2022-11-04T02:43:13;29.63;;;15.00;;
18796;SDS011;9526;52.612;13.300;2022-11-04T02:45:45;27.67;;;15.40;;
18796;SDS011;9526;52.612;13.300;2022-11-04T02:48:11;31.67;;;16.02;;
18796;SDS011;9526;52.612;13.300;2022-11-04T02:50:43;38.13;;;16.17;;
18796;SDS011;9526;52.612;13.300;2022-11-04T02:53:13;33.47;;;16.00;;
18796;SDS011;9526;52.612;13.300;2022-11-04T02:55:42;28.60;;;15.57;;
18796;SDS011;9526;52.612;13.300;2022-11-04T02:58:09;35.78;;;16.25;;
18796;SDS011;9526;52.612;13.300;2022-11-04T03:00:38;33.78;;;15.68;;
18796;SDS011;9526;52.612;13.300;2022-11-04T03:03:06;30.95;;;15.48;;
18796;SDS011;9526;52.612;13.300;2022-11-04T03:05:35;31.52;;;16.05;;
18796;SDS011;9526;52.612;13.300;2022-11-04T03:08:02;32.08;;;16.08;;
18796;SDS011;9526;52.612;13.300;2022-11-04T03:10:32;30.38;;;15.93;;
18796;SDS011;9526;52.612;13.300;2022-11-04T03:13:01;31.33;;;16.08;;
18796;SDS011;9526;52.612;13.300;2022-11-04T03:15:33;35.03;;;17.38;;
18796;SDS011;9526;52.612;13.300;2022-11-04T03:18:01;37.65;;;18.40;;
18796;SDS011;9526;52.612;13.300;2022-11-04T03:20:35;34.25;;;17.73;;
18796;SDS011;9526;52.612;13.300;2022-11-04T03:23:00;40.85;;;19.25;;
18796;SDS011;9526;52.612;13.300;2022-11-04T03:25:25;38.00;;;18.33;;
18796;SDS011;9526;52.612;13.300;2022-11-04T03:27:56;38.08;;;19.05;;
18796;SDS011;9526;52.612;13.300;2022-11-04T03:30:25;40.35;;;18.58;;
18796;SDS011;9526;52.612;13.300;2022-11-04T03:33:01;42.22;;;19.23;;
18796;SDS011;9526;52.612;13.300;2022-11-04T03:35:31;39.95;;;19.10;;
18796;SDS011;9526;52.612;13.300;2022-11-04T03:37:55;40.75;;;19.95;;
18796;SDS011;9526;52.612;13.300;2022-11-04T03:40:19;38.33;;;20.30;;
18796;SDS011;9526;52.612;13.300;2022-11-04T03:42:45;35.38;;;18.77;;
18796;SDS011;9526;52.612;13.300;2022-11-04T03:45:17;36.13;;;19.00;;
18796;SDS011;9526;52.612;13.300;2022-11-04T03:47:41;42.92;;;19.85;;
18796;SDS011;9526;52.612;13.300;2022-11-04T03:50:08;33.65;;;19.27;;
18796;SDS011;9526;52.612;13.300;2022-11-04T03:52:38;38.42;;;19.58;;
18796;SDS011;9526;52.612;13.300;2022-11-04T03:55:02;45.00;;;19.80;;
18796;SDS011;9526;52.612;13.300;2022-11-04T03:57:30;36.88;;;18.50;;
18796;SDS011;9526;52.612;13.300;2022-11-04T04:00:09;40.60;;;17.95;;
18796;SDS011;9526;52.612;13.300;2022-11-04T04:02:38;38.75;;;18.23;;
18796;SDS011;9526;52.612;13.300;2022-11-04T04:05:25;35.20;;;18.27;;
18796;SDS011;9526;52.612;13.300;2022-11-04T04:07:53;33.70;;;16.67;;
18796;SDS011;9526;52.612;13.300;2022-11-04T04:10:42;34.70;;;17.95;;
18796;SDS011;9526;52.612;13.300;2022-11-04T04:13:18;31.02;;;17.88;;
18796;SDS011;9526;52.612;13.300;2022-11-04T04:15:53;34.78;;;17.35;;
18796;SDS011;9526;52.612;13.300;2022-11-04T04:18:24;34.17;;;17.52;;
18796;SDS011;9526;52.612;13.300;2022-11-04T04:20:55;31.75;;;16.63;;
18796;SDS011;9526;52.612;13.300;2022-11-04T04:23:25;33.72;;;16.38;;
18796;SDS011;9526;52.612;13.300;2022-11-04T04:26:05;36.65;;;16.88;;
18796;SDS011;9526;52.612;13.300;2022-11-04T04:28:49;36.67;;;17.08;;
18796;SDS011;9526;52.612;13.300;2022-11-04T04:31:14;36.60;;;16.63;;
18796;SDS011;9526;52.612;13.300;2022-11-04T04:33:59;36.42;;;16.95;;
18796;SDS011;9526;52.612;13.300;2022-11-04T04:36:24;34.55;;;17.15;;
18796;SDS011;9526;52.612;13.300;2022-11-04T04:38:49;37.13;;;17.30;;
18796;SDS011;9526;52.612;13.300;2022-11-04T04:41:39;36.35;;;16.83;;
18796;SDS011;9526;52.612;13.300;2022-11-04T04:44:22;37.40;;;17.15;;
18796;SDS011;9526;52.612;13.300;2022-11-04T04:47:05;33.25;;;16.23;;
18796;SDS011;9526;52.612;13.300;2022-11-04T04:49:31;34.83;;;17.27;;
18796;SDS011;9526;52.612;13.300;2022-11-04T04:51:57;36.95;;;17.45;;
18796;SDS011;9526;52.612;13.300;2022-11-04T04:54:22;38.85;;;17.23;;
18796;SDS011;9526;52.612;13.300;2022-11-04T04:56:46;33.25;;;16.42;;
18796;SDS011;9526;52.612;13.300;2022-11-04T04:59:09;36.42;;;16.75;;
18796;SDS011;9526;52.612;13.300;2022-11-04T05:01:33;32.35;;;16.60;;
18796;SDS011;9526;52.612;13.300;2022-11-04T05:03:56;33.65;;;16.83;;
18796;SDS011;9526;52.612;13.300;2022-11-04T05:06:20;29.15;;;16.42;;
18796;SDS011;9526;52.612;13.300;2022-11-04T05:08:45;32.72;;;16.83;;
18796;SDS011;9526;52.612;13.300;2022-11-04T05:11:09;35.40;;;17.02;;
18796;SDS011;9526;52.612;13.300;2022-11-04T05:13:33;30.77;;;17.05;;
18796;SDS011;9526;52.612;13.300;2022-11-04T05:15:56;35.90;;;16.73;;
18796;SDS011;9526;52.612;13.300;2022-11-04T05:18:26;36.65;;;17.58;;
18796;SDS011;9526;52.612;13.300;2022-11-04T05:20:49;30.70;;;17.08;;
18796;SDS011;9526;52.612;13.300;2022-11-04T05:23:13;33.33;;;16.95;;
18796;SDS011;9526;52.612;13.300;2022-11-04T05:25:38;29.83;;;16.48;;
18796;SDS011;9526;52.612;13.300;2022-11-04T05:28:03;27.73;;;16.00;;
18796;SDS011;9526;52.612;13.300;2022-11-04T05:30:27;33.83;;;16.00;;
18796;SDS011;9526;52.612;13.300;2022-11-04T05:32:51;30.70;;;16.05;;
18796;SDS011;9526;52.612;13.300;2022-11-04T05:35:21;31.35;;;17.00;;
18796;SDS011;9526;52.612;13.300;2022-11-04T05:37:45;30.73;;;16.15;;
18796;SDS011;9526;52.612;13.300;2022-11-04T05:40:09;33.85;;;16.30;;
18796;SDS011;9526;52.612;13.300;2022-11-04T05:42:35;29.92;;;16.13;;
18796;SDS011;9526;52.612;13.300;2022-11-04T05:44:58;28.60;;;15.60;;
18796;SDS011;9526;52.612;13.300;2022-11-04T05:47:22;30.40;;;15.65;;
18796;SDS011;9526;52.612;13.300;2022-11-04T05:49:46;35.60;;;17.65;;
18796;SDS011;9526;52.612;13.300;2022-11-04T05:52:09;34.30;;;15.82;;
18796;SDS011;9526;52.612;13.300;2022-11-04T05:54:33;33.55;;;16.38;;
18796;SDS011;9526;52.612;13.300;2022-11-04T05:56:58;35.25;;;16.75;;
18796;SDS011;9526;52.612;13.300;2022-11-04T05:59:23;28.60;;;15.95;;
18796;SDS011;9526;52.612;13.300;2022-11-04T06:01:47;34.58;;;16.23;;
18796;SDS011;9526;52.612;13.300;2022-11-04T06:04:12;33.40;;;16.25;;
18796;SDS011;9526;52.612;13.300;2022-11-04T06:06:39;35.40;;;16.40;;
18796;SDS011;9526;52.612;13.300;2022-11-04T06:09:03;30.23;;;16.38;;
18796;SDS011;9526;52.612;13.300;2022-11-04T06:11:27;30.33;;;15.70;;
18796;SDS011;9526;52.612;13.300;2022-11-04T06:13:52;33.65;;;16.55;;
18796;SDS011;9526;52.612;13.300;2022-11-04T06:16:18;36.58;;;16.65;;
18796;SDS011;9526;52.612;13.300;2022-11-04T06:18:42;35.97;;;17.77;;
18796;SDS011;9526;52.612;13.300;2022-11-04T06:21:10;34.85;;;17.00;;
18796;SDS011;9526;52.612;13.300;2022-11-04T06:23:45;36.47;;;17.63;;
18796;SDS011;9526;52.612;13.300;2022-11-04T06:26:09;34.45;;;16.85;;
18796;SDS011;9526;52.612;13.300;2022-11-04T06:28:33;30.65;;;17.15;;
18796;SDS011;9526;52.612;13.300;2022-11-04T06:30:57;37.08;;;17.67;;
18796;SDS011;9526;52.612;13.300;2022-11-04T06:33:24;26.38;;;16.77;;
18796;SDS011;9526;52.612;13.300;2022-11-04T06:35:55;34.35;;;17.13;;
18796;SDS011;9526;52.612;13.300;2022-11-04T06:38:19;34.88;;;17.25;;
18796;SDS011;9526;52.612;13.300;2022-11-04T06:40:43;34.50;;;17.63;;
18796;SDS011;9526;52.612;13.300;2022-11-04T06:43:07;32.25;;;16.45;;
18796;SDS011;9526;52.612;13.300;2022-11-04T06:45:31;32.88;;;17.70;;
18796;SDS011;9526;52.612;13.300;2022-11-04T06:47:54;32.65;;;16.60;;
18796;SDS011;9526;52.612;13.300;2022-11-04T06:50:19;31.73;;;16.98;;
18796;SDS011;9526;52.612;13.300;2022-11-04T06:52:43;36.90;;;18.88;;
18796;SDS011;9526;52.612;13.300;2022-11-04T06:55:07;35.03;;;18.55;;
18796;SDS011;9526;52.612;13.300;2022-11-04T06:57:31;36.47;;;18.00;;
18796;SDS011;9526;52.612;13.300;2022-11-04T06:59:55;34.95;;;17.65;;
18796;SDS011;9526;52.612;13.300;2022-11-04T07:02:18;34.83;;;18.00;;
18796;SDS011;9526;52.612;13.300;2022-11-04T07:04:42;34.88;;;18.73;;
18796;SDS011;9526;52.612;13.300;2022-11-04T07:07:07;37.78;;;19.05;;
18796;SDS011;9526;52.612;13.300;2022-11-04T07:09:31;37.42;;;18.67;;
18796;SDS011;9526;52.612;13.300;2022-11-04T07:11:55;37.20;;;19.63;;
18796;SDS011;9526;52.612;13.300;2022-11-04T07:14:19;37.47;;;18.67;;
18796;SDS011;9526;52.612;13.300;2022-11-04T07:16:42;35.55;;;18.73;;
18796;SDS011;9526;52.612;13.300;2022-11-04T07:19:06;39.80;;;20.30;;
18796;SDS011;9526;52.612;13.300;2022-11-04T07:21:30;41.70;;;20.95;;
18796;SDS011;9526;52.612;13.300;2022-11-04T07:23:55;39.95;;;19.77;;
18796;SDS011;9526;52.612;13.300;2022-11-04T07:26:18;43.90;;;20.60;;
18796;SDS011;9526;52.612;13.300;2022-11-04T07:28:42;42.13;;;20.90;;
18796;SDS011;9526;52.612;13.300;2022-11-04T07:31:07;45.20;;;21.70;;
18796;SDS011;9526;52.612;13.300;2022-11-04T07:33:33;43.55;;;21.67;;
18796;SDS011;9526;52.612;13.300;2022-11-04T07:35:57;52.80;;;23.05;;
18796;SDS011;9526;52.612;13.300;2022-11-04T07:38:25;45.67;;;22.45;;
18796;SDS011;9526;52.612;13.300;2022-11-04T07:40:50;48.50;;;23.10;;
18796;SDS011;9526;52.612;13.300;2022-11-04T07:43:13;51.03;;;22.55;;
18796;SDS011;9526;52.612;13.300;2022-11-04T07:45:39;50.67;;;23.90;;
18796;SDS011;9526;52.612;13.300;2022-11-04T07:48:02;53.60;;;24.45;;
18796;SDS011;9526;52.612;13.300;2022-11-04T07:50:27;45.63;;;22.65;;
18796;SDS011;9526;52.612;13.300;2022-11-04T07:52:51;52.80;;;23.02;;
18796;SDS011;9526;52.612;13.300;2022-11-04T07:55:14;46.28;;;23.10;;
18796;SDS011;9526;52.612;13.300;2022-11-04T07:57:40;49.30;;;23.38;;
18796;SDS011;9526;52.612;13.300;2022-11-04T08:00:04;43.83;;;21.58;;
18796;SDS011;9526;52.612;13.300;2022-11-04T08:02:32;44.58;;;21.75;;
18796;SDS011;9526;52.612;13.300;2022-11-04T08:04:56;46.53;;;21.90;;
18796;SDS011;9526;52.612;13.300;2022-11-04T08:07:20;44.42;;;22.02;;
18796;SDS011;9526;52.612;13.300;2022-11-04T08:09:43;46.45;;;22.25;;
18796;SDS011;9526;52.612;13.300;2022-11-04T08:12:07;44.00;;;22.30;;
18796;SDS011;9526;52.612;13.300;2022-11-04T08:14:32;48.67;;;22.05;;
18796;SDS011;9526;52.612;13.300;2022-11-04T08:16:56;42.30;;;20.27;;
18796;SDS011;9526;52.612;13.300;2022-11-04T08:19:20;48.03;;;21.08;;
18796;SDS011;9526;52.612;13.300;2022-11-04T08:21:43;43.95;;;20.90;;
18796;SDS011;9526;52.612;13.300;2022-11-04T08:24:07;37.85;;;21.38;;
18796;SDS011;9526;52.612;13.300;2022-11-04T08:26:31;43.53;;;21.42;;
18796;SDS011;9526;52.612;13.300;2022-11-04T08:28:55;39.88;;;22.33;;
18796;SDS011;9526;52.612;13.300;2022-11-04T08:31:21;45.00;;;22.83;;
18796;SDS011;9526;52.612;13.300;2022-11-04T08:33:47;46.35;;;22.50;;
18796;SDS011;9526;52.612;13.300;2022-11-04T08:36:11;37.10;;;21.00;;
18796;SDS011;9526;52.612;13.300;2022-11-04T08:38:38;46.42;;;21.63;;
18796;SDS011;9526;52.612;13.300;2022-11-04T08:41:03;37.88;;;19.52;;
18796;SDS011;9526;52.612;13.300;2022-11-04T08:43:28;37.70;;;19.70;;
18796;SDS011;9526;52.612;13.300;2022-11-04T08:45:52;38.30;;;18.42;;
18796;SDS011;9526;52.612;13.300;2022-11-04T08:48:17;40.28;;;18.88;;
18796;SDS011;9526;52.612;13.300;2022-11-04T08:50:41;32.13;;;18.05;;
18796;SDS011;9526;52.612;13.300;2022-11-04T08:53:05;33.22;;;17.60;;
18796;SDS011;9526;52.612;13.300;2022-11-04T08:55:29;31.25;;;18.73;;
18796;SDS011;9526;52.612;13.300;2022-11-04T08:57:54;32.08;;;16.45;;
18796;SDS011;9526;52.612;13.300;2022-11-04T09:00:17;33.22;;;17.63;;
18796;SDS011;9526;52.612;13.300;2022-11-04T09:02:41;29.08;;;16.88;;
18796;SDS011;9526;52.612;13.300;2022-11-04T09:05:06;34.83;;;16.98;;
18796;SDS011;9526;52.612;13.300;2022-11-04T09:07:30;31.88;;;17.52;;
18796;SDS011;9526;52.612;13.300;2022-11-04T09:09:55;30.38;;;18.40;;
18796;SDS011;9526;52.612;13.300;2022-11-04T09:12:19;32.35;;;17.85;;
18796;SDS011;9526;52.612;13.300;2022-11-04T09:14:43;30.55;;;17.00;;
18796;SDS011;9526;52.612;13.300;2022-11-04T09:17:06;34.63;;;17.55;;
18796;SDS011;9526;52.612;13.300;2022-11-04T09:19:30;29.02;;;16.55;;
18796;SDS011;9526;52.612;13.300;2022-11-04T09:21:55;27.83;;;16.38;;
18796;SDS011;9526;52.612;13.300;2022-11-04T09:24:19;26.70;;;15.93;;
18796;SDS011;9526;52.612;13.300;2022-11-04T09:26:42;28.85;;;15.50;;
18796;SDS011;9526;52.612;13.300;2022-11-04T09:29:06;25.48;;;15.05;;
18796;SDS011;9526;52.612;13.300;2022-11-04T09:31:30;30.00;;;15.80;;
18796;SDS011;9526;52.612;13.300;2022-11-04T09:33:54;29.08;;;15.70;;
18796;SDS011;9526;52.612;13.300;2022-11-04T09:36:17;28.00;;;16.02;;
18796;SDS011;9526;52.612;13.300;2022-11-04T09:38:42;31.70;;;14.60;;
18796;SDS011;9526;52.612;13.300;2022-11-04T09:41:20;30.20;;;14.65;;
18796;SDS011;9526;52.612;13.300;2022-11-04T09:44:19;29.45;;;14.98;;
18796;SDS011;9526;52.612;13.300;2022-11-04T09:46:47;26.10;;;15.18;;
18796;SDS011;9526;52.612;13.300;2022-11-04T09:49:14;27.00;;;14.90;;
18796;SDS011;9526;52.612;13.300;2022-11-04T09:51:38;26.77;;;14.85;;
18796;SDS011;9526;52.612;13.300;2022-11-04T09:54:17;23.77;;;14.15;;
18796;SDS011;9526;52.612;13.300;2022-11-04T09:56:44;24.75;;;13.48;;
18796;SDS011;9526;52.612;13.300;2022-11-04T09:59:13;22.40;;;12.88;;
18796;SDS011;9526;52.612;13.300;2022-11-04T10:01:49;23.90;;;14.38;;
18796;SDS011;9526;52.612;13.300;2022-11-04T10:04:26;23.23;;;14.15;;
18796;SDS011;9526;52.612;13.300;2022-11-04T10:07:09;25.35;;;13.48;;
18796;SDS011;9526;52.612;13.300;2022-11-04T10:09:51;27.27;;;13.85;;
18796;SDS011;9526;52.612;13.300;2022-11-04T10:12:31;21.88;;;13.05;;
18796;SDS011;9526;52.612;13.300;2022-11-04T10:15:15;25.25;;;13.05;;
18796;SDS011;9526;52.612;13.300;2022-11-04T10:18:03;19.67;;;11.77;;
18796;SDS011;9526;52.612;13.300;2022-11-04T10:20:42;19.83;;;12.13;;
18796;SDS011;9526;52.612;13.300;2022-11-04T10:23:19;20.73;;;13.05;;
18796;SDS011;9526;52.612;13.300;2022-11-04T10:25:47;22.08;;;11.85;;
18796;SDS011;9526;52.612;13.300;2022-11-04T10:28:16;20.70;;;12.18;;
18796;SDS011;9526;52.612;13.300;2022-11-04T10:30:42;21.45;;;12.52;;
18796;SDS011;9526;52.612;13.300;2022-11-04T10:33:10;22.10;;;12.88;;
18796;SDS011;9526;52.612;13.300;2022-11-04T10:35:43;23.88;;;12.98;;
18796;SDS011;9526;52.612;13.300;2022-11-04T10:38:13;20.17;;;12.48;;
18796;SDS011;9526;52.612;13.300;2022-11-04T10:40:41;17.95;;;11.43;;
18796;SDS011;9526;52.612;13.300;2022-11-04T10:43:12;19.60;;;11.48;;
18796;SDS011;9526;52.612;13.300;2022-11-04T10:45:45;18.95;;;12.07;;
18796;SDS011;9526;52.612;13.300;2022-11-04T10:48:18;19.98;;;11.75;;
18796;SDS011;9526;52.612;13.300;2022-11-04T10:50:50;17.85;;;11.18;;
18796;SDS011;9526;52.612;13.300;2022-11-04T10:53:18;18.95;;;12.02;;
18796;SDS011;9526;52.612;13.300;2022-11-04T10:55:48;19.95;;;11.57;;
18796;SDS011;9526;52.612;13.300;2022-11-04T10:58:20;19.52;;;11.65;;
18796;SDS011;9526;52.612;13.300;2022-11-04T11:00:46;21.75;;;12.18;;
18796;SDS011;9526;52.612;13.300;2022-11-04T11:06:12;19.10;;;11.95;;
18796;SDS011;9526;52.612;13.300;2022-11-04T11:08:43;21.13;;;11.88;;
18796;SDS011;9526;52.612;13.300;2022-11-04T11:11:09;18.63;;;11.85;;
18796;SDS011;9526;52.612;13.300;2022-11-04T11:13:36;16.58;;;11.55;;
18796;SDS011;9526;52.612;13.300;2022-11-04T11:16:04;21.65;;;12.63;;
18796;SDS011;9526;52.612;13.300;2022-11-04T11:18:32;16.92;;;11.18;;
18796;SDS011;9526;52.612;13.300;2022-11-04T11:21:05;19.65;;;12.50;;
18796;SDS011;9526;52.612;13.300;2022-11-04T11:23:35;20.13;;;12.35;;
18796;SDS011;9526;52.612;13.300;2022-11-04T11:26:05;18.65;;;11.90;;
18796;SDS011;9526;52.612;13.300;2022-11-04T11:28:32;19.25;;;11.70;;
18796;SDS011;9526;52.612;13.300;2022-11-04T11:30:59;18.67;;;11.98;;
18796;SDS011;9526;52.612;13.300;2022-11-04T11:33:27;19.15;;;11.73;;
18796;SDS011;9526;52.612;13.300;2022-11-04T11:35:52;20.05;;;11.48;;
18796;SDS011;9526;52.612;13.300;2022-11-04T11:38:20;18.08;;;11.63;;
18796;SDS011;9526;52.612;13.300;2022-11-04T11:40:46;19.00;;;11.90;;
18796;SDS011;9526;52.612;13.300;2022-11-04T11:43:34;18.85;;;12.25;;
18796;SDS011;9526;52.612;13.300;2022-11-04T11:46:01;20.00;;;11.98;;
18796;SDS011;9526;52.612;13.300;2022-11-04T11:48:29;18.35;;;12.50;;
18796;SDS011;9526;52.612;13.300;2022-11-04T11:50:57;17.25;;;12.45;;
18796;SDS011;9526;52.612;13.300;2022-11-04T11:53:21;20.48;;;13.00;;
18796;SDS011;9526;52.612;13.300;2022-11-04T11:55:47;20.48;;;13.05;;
18796;SDS011;9526;52.612;13.300;2022-11-04T11:58:19;17.65;;;11.07;;
18796;SDS011;9526;52.612;13.300;2022-11-04T12:01:12;17.95;;;11.30;;
18796;SDS011;9526;52.612;13.300;2022-11-04T12:03:46;19.80;;;12.75;;
18796;SDS011;9526;52.612;13.300;2022-11-04T12:06:34;16.45;;;11.68;;
18796;SDS011;9526;52.612;13.300;2022-11-04T12:09:31;21.08;;;12.32;;
18796;SDS011;9526;52.612;13.300;2022-11-04T12:12:02;21.13;;;12.30;;
18796;SDS011;9526;52.612;13.300;2022-11-04T12:14:43;20.13;;;12.60;;
18796;SDS011;9526;52.612;13.300;2022-11-04T12:17:21;17.92;;;12.50;;
18796;SDS011;9526;52.612;13.300;2022-11-04T12:19:58;22.30;;;12.75;;
18796;SDS011;9526;52.612;13.300;2022-11-04T12:22:39;18.23;;;12.63;;
18796;SDS011;9526;52.612;13.300;2022-11-04T12:25:14;19.55;;;13.02;;
18796;SDS011;9526;52.612;13.300;2022-11-04T12:27:45;20.67;;;13.00;;
18796;SDS011;9526;52.612;13.300;2022-11-04T12:30:18;15.77;;;12.07;;
18796;SDS011;9526;52.612;13.300;2022-11-04T12:33:00;20.55;;;12.52;;
18796;SDS011;9526;52.612;13.300;2022-11-04T12:35:42;19.63;;;12.43;;
18796;SDS011;9526;52.612;13.300;2022-11-04T12:38:24;15.55;;;11.32;;
18796;SDS011;9526;52.612;13.300;2022-11-04T12:41:06;19.52;;;12.15;;
18796;SDS011;9526;52.612;13.300;2022-11-04T12:43:59;18.33;;;11.63;;
18796;SDS011;9526;52.612;13.300;2022-11-04T12:46:32;17.85;;;12.02;;
18796;SDS011;9526;52.612;13.300;2022-11-04T12:49:11;17.05;;;11.57;;
18796;SDS011;9526;52.612;13.300;2022-11-04T12:51:57;18.20;;;12.15;;
18796;SDS011;9526;52.612;13.300;2022-11-04T12:54:41;15.75;;;11.50;;
18796;SDS011;9526;52.612;13.300;2022-11-04T12:57:21;18.20;;;11.98;;
18796;SDS011;9526;52.612;13.300;2022-11-04T13:00:03;16.58;;;11.60;;
18796;SDS011;9526;52.612;13.300;2022-11-04T13:02:33;18.60;;;11.68;;
18796;SDS011;9526;52.612;13.300;2022-11-04T13:05:04;17.90;;;11.27;;
18796;SDS011;9526;52.612;13.300;2022-11-04T13:07:41;15.95;;;12.20;;
18796;SDS011;9526;52.612;13.300;2022-11-04T13:10:14;22.08;;;12.98;;
18796;SDS011;9526;52.612;13.300;2022-11-04T13:12:43;15.43;;;10.98;;
18796;SDS011;9526;52.612;13.300;2022-11-04T13:15:12;15.95;;;11.15;;
18796;SDS011;9526;52.612;13.300;2022-11-04T13:17:41;16.77;;;12.20;;
18796;SDS011;9526;52.612;13.300;2022-11-04T13:20:13;19.33;;;13.55;;
18796;SDS011;9526;52.612;13.300;2022-11-04T13:22:56;20.17;;;13.95;;
18796;SDS011;9526;52.612;13.300;2022-11-04T13:25:28;20.48;;;13.50;;
18796;SDS011;9526;52.612;13.300;2022-11-04T13:27:55;20.70;;;14.38;;
18796;SDS011;9526;52.612;13.300;2022-11-04T13:30:20;20.70;;;13.55;;
18796;SDS011;9526;52.612;13.300;2022-11-04T13:32:54;25.67;;;17.17;;
18796;SDS011;9526;52.612;13.300;2022-11-04T13:35:24;23.48;;;16.67;;
18796;SDS011;9526;52.612;13.300;2022-11-04T13:37:59;25.13;;;16.67;;
18796;SDS011;9526;52.612;13.300;2022-11-04T13:40:30;28.00;;;16.63;;
18796;SDS011;9526;52.612;13.300;2022-11-04T13:43:15;26.27;;;16.58;;
18796;SDS011;9526;52.612;13.300;2022-11-04T13:46:00;35.15;;;19.05;;
18796;SDS011;9526;52.612;13.300;2022-11-04T13:48:26;25.23;;;16.23;;
18796;SDS011;9526;52.612;13.300;2022-11-04T13:50:56;28.27;;;17.33;;
18796;SDS011;9526;52.612;13.300;2022-11-04T13:53:38;25.80;;;17.52;;
18796;SDS011;9526;52.612;13.300;2022-11-04T13:56:04;25.88;;;17.98;;
18796;SDS011;9526;52.612;13.300;2022-11-04T13:58:50;35.95;;;21.10;;
18796;SDS011;9526;52.612;13.300;2022-11-04T14:01:24;32.05;;;21.15;;
18796;SDS011;9526;52.612;13.300;2022-11-04T14:03:52;29.58;;;20.02;;
18796;SDS011;9526;52.612;13.300;2022-11-04T14:09:29;32.17;;;20.25;;
18796;SDS011;9526;52.612;13.300;2022-11-04T14:15:02;30.58;;;18.63;;
18796;SDS011;9526;52.612;13.300;2022-11-04T14:20:29;28.13;;;17.75;;
18796;SDS011;9526;52.612;13.300;2022-11-04T14:22:58;30.77;;;19.63;;
18796;SDS011;9526;52.612;13.300;2022-11-04T14:25:25;32.58;;;18.35;;
18796;SDS011;9526;52.612;13.300;2022-11-04T14:27:56;22.40;;;16.88;;
18796;SDS011;9526;52.612;13.300;2022-11-04T14:30:26;25.70;;;17.00;;
18796;SDS011;9526;52.612;13.300;2022-11-04T14:33:05;32.45;;;18.42;;
18796;SDS011;9526;52.612;13.300;2022-11-04T14:35:43;28.42;;;17.45;;
18796;SDS011;9526;52.612;13.300;2022-11-04T14:38:17;30.52;;;18.92;;
18796;SDS011;9526;52.612;13.300;2022-11-04T14:40:49;29.50;;;21.15;;
18796;SDS011;9526;52.612;13.300;2022-11-04T14:43:20;30.77;;;19.15;;
18796;SDS011;9526;52.612;13.300;2022-11-04T14:45:54;27.40;;;18.42;;
18796;SDS011;9526;52.612;13.300;2022-11-04T14:48:18;29.05;;;18.45;;